Alpharetta, Georgia
Current Conditions -  °F | °C
As of 2:53 PM on Monday 24 Nov 2014 (Local Time) from KPDK Reporting Station
Clear Clear  
Wind Chill: 74°   Ceiling: Unl
Heat Index: 74°   Visibility: 10mi
Dew Point: 50°   Wind: 13mph
Humidity: 43%   Direction: 240°WSW
Pressure: 29.79"   Gusts: NA
Location:  34.08°N, 84.29°W
Report Text: KPDK 241953Z 24011KT 10SM CLR 23/10 A2979 RMK AO2 SLP079 T02330100
Loading
Personal Weather Stations






























Interactive Weather Map New forecast layout! Learn more

10-Day Weather Forecast

Advertisements
Track Severe Weather on mobile